createdAt,value
2022-09-13T00:00:44.936Z,18.68
2022-09-13T00:04:46.485Z,18.65
2022-09-13T00:08:48.923Z,18.57
2022-09-13T00:12:51.052Z,18.56
2022-09-13T00:16:52.582Z,18.47
2022-09-13T00:21:08.213Z,18.41
2022-09-13T00:25:09.969Z,18.34
2022-09-13T00:29:11.535Z,18.34
2022-09-13T00:33:12.992Z,18.29
2022-09-13T00:37:14.582Z,18.29
2022-09-13T00:41:19.191Z,18.28
2022-09-13T00:45:20.835Z,18.17
2022-09-13T00:49:27.145Z,18.16
2022-09-13T00:53:34.114Z,18.11
2022-09-13T00:57:36.779Z,18.10
2022-09-13T01:01:44.856Z,18.11
2022-09-13T01:05:52.012Z,18.09
2022-09-13T01:09:53.865Z,18.07
2022-09-13T01:13:57.186Z,18.04
2022-09-13T01:17:59.165Z,17.99
2022-09-13T01:22:36.055Z,17.99
2022-09-13T01:27:01.669Z,17.95
2022-09-13T01:31:28.031Z,17.94
2022-09-13T01:35:57.159Z,17.92
2022-09-13T01:40:05.445Z,17.91
2022-09-13T01:44:43.593Z,17.71
2022-09-13T01:49:00.339Z,17.68
2022-09-13T01:53:10.014Z,17.66
2022-09-13T01:57:38.161Z,17.45
2022-09-13T02:01:48.360Z,17.43
2022-09-13T02:06:12.620Z,17.38
2022-09-13T02:10:20.685Z,17.38
2022-09-13T02:14:27.397Z,17.32
2022-09-13T02:18:34.784Z,17.28
2022-09-13T02:22:48.048Z,17.28
2022-09-13T02:26:52.783Z,17.28
2022-09-13T02:30:56.662Z,17.24
2022-09-13T02:35:44.490Z,17.24
2022-09-13T02:39:53.348Z,17.06
2022-09-13T02:44:02.610Z,16.91
2022-09-13T02:48:12.402Z,16.82
2022-09-13T02:52:27.773Z,16.87
2022-09-13T02:56:39.282Z,16.81
2022-09-13T03:00:41.491Z,16.80
2022-09-13T03:04:42.998Z,16.78
2022-09-13T03:08:44.540Z,16.80
2022-09-13T03:13:24.765Z,16.72
2022-09-13T03:17:36.864Z,16.70
2022-09-13T03:21:53.583Z,16.73
2022-09-13T03:26:24.792Z,16.77
2022-09-13T03:30:26.594Z,16.80
2022-09-13T03:34:48.712Z,16.81
2022-09-13T03:39:15.523Z,16.84
2022-09-13T03:43:24.512Z,16.95
2022-09-13T03:47:28.382Z,16.98
2022-09-13T03:51:30.416Z,16.99
2022-09-13T03:55:33.403Z,17.02
2022-09-13T03:59:36.596Z,17.05
2022-09-13T04:03:38.985Z,17.06
2022-09-13T04:07:40.554Z,17.02
2022-09-13T04:11:42.032Z,16.87
2022-09-13T04:15:43.577Z,16.87
2022-09-13T04:19:47.021Z,16.82
2022-09-13T04:23:50.277Z,16.78
2022-09-13T04:27:59.940Z,16.72
2022-09-13T04:32:01.564Z,16.66
2022-09-13T04:36:03.089Z,16.62
2022-09-13T04:40:08.296Z,16.66
2022-09-13T04:44:09.872Z,16.67
2022-09-13T04:48:11.370Z,16.67
2022-09-13T04:52:12.886Z,16.72
2022-09-13T04:56:15.452Z,16.73
2022-09-13T05:00:17.101Z,16.75
2022-09-13T05:04:18.669Z,16.78
2022-09-13T05:08:20.169Z,16.82
2022-09-13T05:12:21.720Z,16.91
2022-09-13T05:16:25.584Z,16.96
2022-09-13T05:20:27.089Z,16.99
2022-09-13T05:24:28.645Z,17.05
2022-09-13T05:28:33.187Z,17.09
2022-09-13T05:32:34.691Z,17.09
2022-09-13T05:36:36.830Z,17.07
2022-09-13T05:40:38.361Z,17.02
2022-09-13T05:44:39.912Z,16.99
2022-09-13T05:48:42.021Z,17.03
2022-09-13T05:52:43.599Z,17.07
2022-09-13T05:56:45.185Z,17.14
2022-09-13T06:00:52.884Z,17.18
2022-09-13T06:04:54.393Z,17.27
2022-09-13T06:08:56.794Z,17.32
2022-09-13T06:12:58.569Z,17.35
2022-09-13T06:17:00.173Z,17.39
2022-09-13T06:21:08.033Z,17.45
2022-09-13T06:25:09.712Z,17.49
2022-09-13T06:29:11.825Z,17.51
2022-09-13T06:33:13.363Z,17.51
2022-09-13T06:37:14.903Z,17.49
2022-09-13T06:41:20.319Z,17.49
2022-09-13T06:45:21.872Z,17.54
2022-09-13T06:49:23.382Z,17.63
2022-09-13T06:53:24.867Z,17.70
2022-09-13T06:57:29.780Z,17.71
2022-09-13T07:01:39.490Z,17.77
2022-09-13T07:05:41.189Z,17.87
2022-09-13T07:09:43.162Z,17.99
2022-09-13T07:13:52.674Z,18.05
2022-09-13T07:17:54.215Z,18.10
2022-09-13T07:21:56.431Z,18.13
2022-09-13T07:26:02.086Z,18.17
2022-09-13T07:30:03.984Z,18.28
2022-09-13T07:34:13.235Z,18.34
2022-09-13T07:38:14.714Z,18.46
2022-09-13T07:42:16.264Z,18.49
2022-09-13T07:46:21.168Z,18.57
2022-09-13T07:50:22.847Z,18.72
2022-09-13T07:54:24.427Z,18.93
2022-09-13T07:58:26.138Z,19.01
2022-09-13T08:02:27.807Z,19.05
2022-09-13T08:06:31.825Z,19.20
2022-09-13T08:10:36.120Z,19.24
2022-09-13T08:14:37.711Z,19.32
2022-09-13T08:18:49.474Z,19.35
2022-09-13T08:22:51.022Z,19.35
2022-09-13T08:26:54.898Z,19.40
2022-09-13T08:30:56.464Z,19.55
2022-09-13T08:34:58.003Z,19.79
2022-09-13T08:39:00.932Z,20.04
2022-09-13T08:43:12.078Z,20.19
2022-09-13T08:47:32.016Z,20.31
2022-09-13T08:51:48.280Z,20.48
2022-09-13T08:55:58.859Z,20.61
2022-09-13T09:00:07.222Z,20.82
2022-09-13T09:04:11.691Z,20.94
2022-09-13T09:08:27.808Z,21.08
2022-09-13T09:12:45.537Z,21.22
2022-09-13T09:17:00.739Z,21.42
2022-09-13T09:21:04.087Z,21.59
2022-09-13T09:25:06.439Z,21.66
2022-09-13T09:29:25.138Z,21.73
2022-09-13T09:33:49.996Z,21.90
2022-09-13T09:38:19.412Z,22.06
2022-09-13T09:42:25.515Z,22.21
2022-09-13T09:46:32.281Z,22.26
2022-09-13T09:50:38.888Z,22.24
2022-09-13T09:54:41.588Z,22.44
2022-09-13T09:58:45.393Z,22.70
2022-09-13T10:02:48.442Z,22.85
2022-09-13T10:06:51.408Z,22.86
2022-09-13T10:10:55.445Z,22.86
2022-09-13T10:15:17.241Z,22.94
2022-09-13T10:19:26.720Z,22.99
2022-09-13T10:23:28.321Z,23.01
2022-09-13T10:27:36.456Z,23.15
2022-09-13T10:31:41.578Z,23.23
2022-09-13T10:35:48.552Z,23.34
2022-09-13T10:39:50.085Z,23.42
2022-09-13T10:44:07.787Z,23.49
2022-09-13T10:48:16.022Z,23.57
2022-09-13T10:52:25.008Z,23.60
2022-09-13T10:56:26.790Z,23.64
2022-09-13T11:01:07.318Z,23.67
2022-09-13T11:05:22.392Z,23.68
2022-09-13T11:09:47.984Z,23.59
2022-09-13T11:14:10.804Z,23.44
2022-09-13T11:18:15.512Z,23.47
2022-09-13T11:22:27.129Z,23.57
2022-09-13T11:26:34.990Z,23.67
2022-09-13T11:30:49.596Z,23.74
2022-09-13T11:35:26.984Z,23.86
2022-09-13T11:39:28.624Z,23.97
2022-09-13T11:43:30.066Z,23.94
2022-09-13T11:47:50.392Z,23.97
2022-09-13T11:52:16.723Z,24.11
2022-09-13T11:56:26.435Z,24.33
2022-09-13T12:00:47.053Z,24.46
2022-09-13T12:05:20.464Z,24.55
2022-09-13T12:09:23.591Z,24.80
2022-09-13T12:13:29.142Z,24.92
2022-09-13T12:18:03.932Z,24.98
2022-09-13T12:22:07.056Z,25.05
2022-09-13T12:26:50.895Z,25.08
2022-09-13T12:30:58.524Z,25.04
2022-09-13T12:35:07.885Z,24.84
2022-09-13T12:39:43.747Z,24.74
2022-09-13T12:44:06.638Z,24.68
2022-09-13T12:48:11.292Z,24.64
2022-09-13T12:52:22.591Z,24.63
2022-09-13T12:57:01.073Z,24.63
2022-09-13T13:01:18.194Z,24.63
2022-09-13T13:05:34.358Z,24.77
2022-09-13T13:09:47.612Z,24.93
2022-09-13T13:13:56.983Z,25.16
2022-09-13T13:18:22.374Z,25.45
2022-09-13T13:22:42.401Z,25.94
2022-09-13T13:26:48.401Z,26.27
2022-09-13T13:30:55.092Z,26.50
2022-09-13T13:35:28.859Z,26.72
2022-09-13T13:39:30.369Z,26.66
2022-09-13T13:43:33.925Z,26.46
2022-09-13T13:47:35.434Z,26.28
2022-09-13T13:51:36.996Z,26.19
2022-09-13T13:55:46.998Z,26.09
2022-09-13T13:59:51.756Z,26.00
2022-09-13T14:03:59.318Z,25.96
2022-09-13T14:08:31.457Z,25.96
2022-09-13T14:12:49.156Z,25.97
2022-09-13T14:17:15.683Z,26.00
2022-09-13T14:21:26.669Z,25.98
2022-09-13T14:25:28.482Z,25.94
2022-09-13T14:29:30.360Z,25.90
2022-09-13T14:33:37.824Z,25.83
2022-09-13T14:37:40.322Z,25.83
2022-09-13T14:41:41.841Z,25.91
2022-09-13T14:45:47.529Z,26.01
2022-09-13T14:50:00.343Z,25.98
2022-09-13T14:54:11.405Z,25.91
2022-09-13T14:58:19.740Z,25.89
2022-09-13T15:02:25.815Z,25.86
2022-09-13T15:06:30.533Z,25.82
2022-09-13T15:10:34.161Z,25.78
2022-09-13T15:14:39.639Z,25.76
2022-09-13T15:18:41.169Z,25.75
2022-09-13T15:22:42.731Z,25.76
2022-09-13T15:26:44.606Z,25.79
2022-09-13T15:30:46.264Z,25.86
2022-09-13T15:34:51.574Z,25.91
2022-09-13T15:39:08.159Z,25.93
2022-09-13T15:43:09.688Z,25.90
2022-09-13T15:47:19.546Z,25.91
2022-09-13T15:51:22.974Z,25.94
2022-09-13T15:55:25.478Z,25.91
2022-09-13T15:59:27.119Z,25.86
2022-09-13T16:03:29.078Z,25.76
2022-09-13T16:07:30.631Z,25.66
2022-09-13T16:11:32.095Z,25.48
2022-09-13T16:15:33.614Z,25.34
2022-09-13T16:19:36.535Z,25.22
2022-09-13T16:23:38.116Z,25.11
2022-09-13T16:27:41.110Z,25.01
2022-09-13T16:31:42.708Z,24.87
2022-09-13T16:35:44.297Z,24.79
2022-09-13T16:39:46.080Z,24.67
2022-09-13T16:43:47.720Z,24.60
2022-09-13T16:47:50.116Z,24.55
2022-09-13T16:51:51.907Z,24.49
2022-09-13T16:55:53.484Z,24.45
2022-09-13T16:59:58.333Z,24.41
2022-09-13T17:04:00.070Z,24.34
2022-09-13T17:08:01.807Z,24.29
2022-09-13T17:12:03.810Z,24.21
2022-09-13T17:16:07.158Z,24.14
2022-09-13T17:20:12.258Z,24.08
2022-09-13T17:24:13.990Z,24.00
2022-09-13T17:28:17.007Z,23.93
2022-09-13T17:32:18.534Z,23.82
2022-09-13T17:36:20.582Z,23.77
2022-09-13T17:40:22.145Z,23.68
2022-09-13T17:44:23.800Z,23.59
2022-09-13T17:48:25.320Z,23.52
2022-09-13T17:52:26.882Z,23.45
2022-09-13T17:56:37.417Z,23.39
2022-09-13T18:00:39.128Z,23.32
2022-09-13T18:04:41.235Z,23.26
2022-09-13T18:08:42.980Z,23.19
2022-09-13T18:12:44.639Z,23.12
2022-09-13T18:16:49.168Z,23.11
2022-09-13T18:20:50.820Z,23.03
2022-09-13T18:24:52.317Z,22.99
2022-09-13T18:29:02.696Z,22.93
2022-09-13T18:33:04.259Z,22.85
2022-09-13T18:37:05.877Z,22.79
2022-09-13T18:41:16.359Z,22.72
2022-09-13T18:45:17.845Z,22.64
2022-09-13T18:49:20.064Z,22.61
2022-09-13T18:53:31.856Z,22.60
2022-09-13T18:57:36.101Z,22.59
2022-09-13T19:01:42.555Z,22.56
2022-09-13T19:05:44.169Z,22.48
2022-09-13T19:09:45.649Z,22.44
2022-09-13T19:13:47.480Z,22.44
2022-09-13T19:17:49.018Z,22.38
2022-09-13T19:21:50.538Z,22.36
2022-09-13T19:25:52.224Z,22.33
2022-09-13T19:29:54.079Z,22.31
2022-09-13T19:33:56.741Z,22.27
2022-09-13T19:37:58.255Z,22.20
2022-09-13T19:42:00.503Z,22.17
2022-09-13T19:46:05.021Z,22.15
2022-09-13T19:50:07.387Z,22.12
2022-09-13T19:54:12.003Z,22.12
2022-09-13T19:58:14.921Z,22.11
2022-09-13T20:02:16.512Z,22.11
2022-09-13T20:06:18.417Z,22.05
2022-09-13T20:10:19.922Z,21.98
2022-09-13T20:14:22.307Z,21.93
2022-09-13T20:18:23.997Z,21.82
2022-09-13T20:22:25.537Z,21.68
2022-09-13T20:26:27.651Z,21.59
2022-09-13T20:30:29.230Z,21.55
2022-09-13T20:34:31.116Z,21.53
2022-09-13T20:38:32.946Z,21.55
2022-09-13T20:42:34.487Z,21.56
2022-09-13T20:46:37.587Z,21.52
2022-09-13T20:50:39.417Z,21.53
2022-09-13T20:54:40.918Z,21.53
2022-09-13T20:58:44.042Z,21.51
2022-09-13T21:02:46.376Z,21.51
2022-09-13T21:07:08.898Z,21.52
2022-09-13T21:11:14.932Z,21.48
2022-09-13T21:15:16.532Z,21.48
2022-09-13T21:19:18.490Z,21.46
2022-09-13T21:23:20.006Z,21.43
2022-09-13T21:27:21.494Z,21.42
2022-09-13T21:31:25.798Z,21.40
2022-09-13T21:35:27.351Z,21.36
2022-09-13T21:39:29.927Z,21.34
2022-09-13T21:43:31.739Z,21.37
2022-09-13T21:47:33.228Z,21.37
2022-09-13T21:51:37.635Z,21.33
2022-09-13T21:55:39.737Z,21.27
2022-09-13T21:59:41.277Z,21.27
2022-09-13T22:03:44.353Z,21.27
2022-09-13T22:07:45.861Z,21.27
2022-09-13T22:11:49.353Z,21.30
2022-09-13T22:15:50.927Z,21.31
2022-09-13T22:19:52.422Z,21.28
2022-09-13T22:23:54.259Z,21.28
2022-09-13T22:27:55.968Z,21.27
2022-09-13T22:31:57.582Z,21.26
2022-09-13T22:36:03.901Z,21.27
2022-09-13T22:40:05.917Z,21.27
2022-09-13T22:44:07.790Z,21.28
2022-09-13T22:48:12.382Z,21.28
2022-09-13T22:52:14.105Z,21.26
2022-09-13T22:56:22.282Z,21.24
2022-09-13T23:00:23.833Z,21.19
2022-09-13T23:04:25.321Z,21.08
2022-09-13T23:08:27.352Z,20.98
2022-09-13T23:12:29.538Z,20.94
2022-09-13T23:16:40.533Z,20.90
2022-09-13T23:20:43.170Z,20.81
2022-09-13T23:24:44.654Z,20.76
2022-09-13T23:28:51.213Z,20.73
2022-09-13T23:32:53.385Z,20.72
2022-09-13T23:36:55.106Z,20.71
2022-09-13T23:40:57.292Z,20.69
2022-09-13T23:44:58.765Z,20.68
2022-09-13T23:49:00.406Z,20.61
2022-09-13T23:53:01.974Z,20.53
2022-09-13T23:57:03.629Z,20.44
